createdAt,value
2017-10-31T00:02:41.000Z,70.60
2017-10-31T00:08:09.193Z,70.80
2017-10-31T00:13:37.332Z,70.90
2017-10-31T00:19:05.546Z,70.90
2017-10-31T00:24:33.752Z,71.00
2017-10-31T00:30:03.116Z,71.10
2017-10-31T00:35:31.266Z,71.10
2017-10-31T00:40:59.401Z,71.30
2017-10-31T00:46:27.527Z,71.30
2017-10-31T00:51:56.417Z,71.50
2017-10-31T00:57:24.560Z,71.50
2017-10-31T01:02:53.102Z,71.60
2017-10-31T01:08:21.247Z,71.50
2017-10-31T01:13:49.387Z,71.70
2017-10-31T01:19:17.646Z,71.80
2017-10-31T01:24:45.834Z,71.90
2017-10-31T01:30:22.711Z,72.00
2017-10-31T01:35:50.865Z,72.10
2017-10-31T01:41:23.686Z,72.10
2017-10-31T01:46:51.930Z,72.10
2017-10-31T01:52:20.065Z,72.20
2017-10-31T01:58:00.946Z,72.20
2017-10-31T02:03:29.186Z,72.20
2017-10-31T02:08:58.398Z,72.30
2017-10-31T02:14:27.519Z,72.30
2017-10-31T02:19:56.624Z,72.30
2017-10-31T02:25:24.873Z,72.40
2017-10-31T02:30:53.026Z,72.50
2017-10-31T02:36:21.231Z,72.60
2017-10-31T02:41:49.367Z,72.50
2017-10-31T02:47:20.233Z,72.70
2017-10-31T02:52:48.371Z,72.70
2017-10-31T02:58:17.912Z,72.70
2017-10-31T03:03:46.038Z,72.80
2017-10-31T03:09:15.551Z,73.00
2017-10-31T03:14:43.698Z,73.10
2017-10-31T03:20:11.833Z,73.10
2017-10-31T03:26:06.338Z,73.10
2017-10-31T03:31:34.463Z,73.20
2017-10-31T03:37:02.711Z,73.20
2017-10-31T03:42:32.812Z,73.30
2017-10-31T03:48:00.952Z,73.20
2017-10-31T03:53:29.847Z,73.40
2017-10-31T03:58:58.011Z,73.40
2017-10-31T04:04:26.150Z,73.40
2017-10-31T04:09:55.190Z,73.50
2017-10-31T04:15:23.323Z,73.60
2017-10-31T04:20:51.633Z,73.70
2017-10-31T04:26:20.554Z,73.70
2017-10-31T04:31:48.679Z,73.70
2017-10-31T04:37:17.694Z,73.70
2017-10-31T04:42:45.884Z,73.70
2017-10-31T04:48:14.014Z,73.70
2017-10-31T04:53:42.152Z,73.70
2017-10-31T04:59:10.324Z,73.60
2017-10-31T05:04:38.454Z,73.60
2017-10-31T05:10:06.577Z,73.70
2017-10-31T05:15:34.693Z,73.80
2017-10-31T05:21:02.805Z,73.90
2017-10-31T05:26:32.009Z,74.00
2017-10-31T05:32:00.188Z,73.90
2017-10-31T05:37:28.305Z,74.00
2017-10-31T05:43:02.240Z,74.00
2017-10-31T05:48:30.361Z,74.10
2017-10-31T05:53:59.590Z,74.10
2017-10-31T05:59:27.771Z,74.10
2017-10-31T06:04:55.894Z,74.10
2017-10-31T06:10:24.922Z,74.10
2017-10-31T06:15:53.818Z,74.10
2017-10-31T06:21:21.951Z,74.10
2017-10-31T06:32:50.434Z,74.00
2017-10-31T06:38:18.579Z,73.90
2017-10-31T06:43:47.484Z,73.80
2017-10-31T06:49:23.338Z,73.80
2017-10-31T06:54:51.461Z,73.80
2017-10-31T07:00:20.422Z,73.60
2017-10-31T07:05:48.550Z,73.60
2017-10-31T07:11:16.675Z,73.60
2017-10-31T07:16:44.804Z,73.50
2017-10-31T07:22:14.319Z,73.40
2017-10-31T07:27:42.490Z,73.30
2017-10-31T07:33:10.650Z,73.30
2017-10-31T07:38:38.789Z,73.10
2017-10-31T07:44:06.930Z,73.00
2017-10-31T07:49:35.806Z,72.90
2017-10-31T07:55:07.844Z,72.80
2017-10-31T08:00:35.974Z,72.80
2017-10-31T08:06:04.146Z,72.70
2017-10-31T08:11:33.099Z,72.40
2017-10-31T08:17:02.215Z,72.40
2017-10-31T08:22:30.360Z,72.50
2017-10-31T08:27:58.549Z,72.20
2017-10-31T08:33:28.097Z,71.90
2017-10-31T08:38:58.386Z,71.80
2017-10-31T08:44:38.698Z,71.60
2017-10-31T08:50:06.830Z,71.50
2017-10-31T08:55:48.471Z,71.30
2017-10-31T09:01:21.965Z,71.10
2017-10-31T09:06:51.196Z,70.80
2017-10-31T09:12:20.362Z,70.70
2017-10-31T09:17:51.254Z,69.90
2017-10-31T09:23:24.894Z,69.90
2017-10-31T09:28:53.078Z,69.80
2017-10-31T09:34:21.285Z,69.10
2017-10-31T09:39:50.285Z,68.50
2017-10-31T09:45:19.792Z,68.40
2017-10-31T09:50:51.860Z,67.80
2017-10-31T09:56:20.018Z,66.90
2017-10-31T10:01:53.090Z,66.60
2017-10-31T10:07:22.139Z,65.60
2017-10-31T10:12:51.025Z,65.20
2017-10-31T10:18:20.983Z,65.10
2017-10-31T10:23:49.900Z,64.20
2017-10-31T10:29:18.660Z,64.20
2017-10-31T10:34:50.852Z,63.00
2017-10-31T10:40:18.991Z,63.30
2017-10-31T10:45:48.108Z,62.80
2017-10-31T10:51:18.758Z,63.10
2017-10-31T10:56:46.900Z,63.20
2017-10-31T11:02:15.808Z,62.80
2017-10-31T11:07:43.939Z,62.70
2017-10-31T11:13:12.137Z,61.70
2017-10-31T11:18:42.941Z,61.60
2017-10-31T11:24:12.137Z,60.60
2017-10-31T11:29:40.304Z,59.30
2017-10-31T11:35:08.842Z,59.00
2017-10-31T11:40:40.594Z,58.50
2017-10-31T11:46:09.811Z,57.80
2017-10-31T11:51:38.901Z,58.30
2017-10-31T11:57:08.042Z,58.40
2017-10-31T12:02:38.358Z,59.10
2017-10-31T12:14:18.029Z,59.40
2017-10-31T12:19:47.215Z,59.30
2017-10-31T12:25:16.953Z,59.70
2017-10-31T12:30:45.151Z,59.20
2017-10-31T12:36:16.947Z,59.10
2017-10-31T12:41:46.012Z,58.80
2017-10-31T12:47:17.339Z,58.60
2017-10-31T12:52:45.492Z,58.50
2017-10-31T12:58:13.648Z,58.30
2017-10-31T13:03:42.026Z,57.80
2017-10-31T13:09:10.194Z,56.00
2017-10-31T13:14:38.398Z,55.50
2017-10-31T13:20:07.300Z,56.00
2017-10-31T13:25:35.463Z,55.30
2017-10-31T13:31:04.180Z,55.40
2017-10-31T13:36:33.834Z,54.90
2017-10-31T13:42:02.880Z,53.10
2017-10-31T13:47:31.509Z,53.30
2017-10-31T13:52:59.750Z,50.00
2017-10-31T13:58:27.899Z,50.70
2017-10-31T14:03:57.244Z,53.30
2017-10-31T14:09:25.976Z,52.80
2017-10-31T14:14:54.153Z,49.00
2017-10-31T14:20:32.778Z,47.20
2017-10-31T14:26:00.996Z,46.20
2017-10-31T14:31:30.052Z,50.70
2017-10-31T14:36:59.226Z,50.60
2017-10-31T14:42:29.361Z,48.90
2017-10-31T14:47:59.540Z,48.30
2017-10-31T14:53:30.700Z,46.90
2017-10-31T14:59:00.529Z,47.00
2017-10-31T15:04:28.750Z,46.90
2017-10-31T15:09:56.913Z,47.40
2017-10-31T15:15:25.096Z,47.60
2017-10-31T15:21:00.488Z,48.60
2017-10-31T15:26:28.649Z,49.20
2017-10-31T15:31:58.817Z,50.00
2017-10-31T15:37:26.961Z,50.80
2017-10-31T15:42:55.108Z,51.60
2017-10-31T15:48:23.257Z,53.00
2017-10-31T15:53:58.103Z,54.40
2017-10-31T15:59:26.289Z,54.30
2017-10-31T16:04:54.464Z,54.80
2017-10-31T16:10:22.609Z,55.40
2017-10-31T16:15:50.744Z,55.80
2017-10-31T16:21:19.022Z,56.30
2017-10-31T16:26:47.163Z,56.90
2017-10-31T16:32:15.495Z,57.30
2017-10-31T16:37:43.656Z,57.50
2017-10-31T16:43:11.855Z,57.90
2017-10-31T16:48:40.031Z,58.20
2017-10-31T16:54:08.988Z,59.00
2017-10-31T16:59:37.189Z,59.00
2017-10-31T17:05:06.099Z,59.60
2017-10-31T17:10:34.323Z,59.60
2017-10-31T17:16:02.622Z,59.80
2017-10-31T17:21:37.095Z,60.00
2017-10-31T17:27:05.381Z,60.40
2017-10-31T17:32:34.421Z,60.90
2017-10-31T17:38:08.351Z,60.90
2017-10-31T17:43:36.689Z,61.20
2017-10-31T17:49:05.654Z,61.80
2017-10-31T17:54:33.808Z,61.80
2017-10-31T18:00:01.957Z,61.90
2017-10-31T18:05:30.894Z,62.80
2017-10-31T18:11:03.438Z,63.10
2017-10-31T18:16:31.679Z,63.10
2017-10-31T18:21:59.846Z,63.40
2017-10-31T18:27:28.066Z,63.70
2017-10-31T18:32:56.229Z,63.80
2017-10-31T18:38:24.411Z,64.70
2017-10-31T18:43:52.551Z,64.30
2017-10-31T18:49:22.423Z,64.80
2017-10-31T18:54:51.137Z,64.80
2017-10-31T19:00:23.293Z,65.10
2017-10-31T19:05:51.461Z,65.10
2017-10-31T19:11:19.804Z,65.30
2017-10-31T19:16:51.097Z,65.40
2017-10-31T19:22:20.244Z,65.70
2017-10-31T19:27:49.390Z,65.60
2017-10-31T19:33:17.554Z,65.90
2017-10-31T19:38:46.043Z,66.00
2017-10-31T19:44:15.225Z,66.10
2017-10-31T19:49:44.334Z,66.20
2017-10-31T19:55:12.545Z,66.20
2017-10-31T20:00:46.670Z,66.40
2017-10-31T20:06:15.803Z,66.80
2017-10-31T20:11:43.995Z,66.70
2017-10-31T20:17:12.283Z,66.80
2017-10-31T20:22:40.509Z,67.00
2017-10-31T20:28:08.693Z,67.10
2017-10-31T20:33:36.973Z,67.20
2017-10-31T20:39:13.552Z,67.70
2017-10-31T20:44:41.730Z,67.60
2017-10-31T20:50:11.812Z,67.90
2017-10-31T21:01:13.935Z,68.00
2017-10-31T21:06:42.874Z,68.00
2017-10-31T21:12:13.659Z,68.20
2017-10-31T21:17:41.838Z,68.20
2017-10-31T21:23:10.089Z,68.40
2017-10-31T21:28:38.347Z,68.40
2017-10-31T21:34:09.360Z,68.60
2017-10-31T21:39:38.447Z,68.60
2017-10-31T21:45:11.584Z,68.70
2017-10-31T21:50:39.829Z,68.80
2017-10-31T21:56:08.053Z,69.20
2017-10-31T22:01:36.236Z,69.10
2017-10-31T22:07:05.179Z,69.30
2017-10-31T22:12:33.332Z,69.30
2017-10-31T22:18:01.476Z,69.40
2017-10-31T22:23:29.630Z,69.50
2017-10-31T22:28:58.557Z,69.50
2017-10-31T22:34:28.725Z,69.50
2017-10-31T22:40:08.841Z,69.60
2017-10-31T22:45:37.904Z,69.60
2017-10-31T22:51:06.098Z,69.60
2017-10-31T22:56:34.290Z,69.60
2017-10-31T23:02:02.450Z,69.60
2017-10-31T23:07:30.600Z,69.60
2017-10-31T23:13:17.275Z,69.60
2017-10-31T23:18:45.434Z,69.80
2017-10-31T23:24:15.316Z,69.80
2017-10-31T23:29:43.561Z,69.80
2017-10-31T23:35:11.781Z,69.70
2017-10-31T23:40:39.943Z,69.80
2017-10-31T23:46:08.112Z,69.80
2017-10-31T23:51:42.197Z,69.60
2017-10-31T23:57:13.342Z,70.10
